WebCam (dist. 5.5Km Est) Villalvernia  WebCam (dist. 5.5Km Est) Villalvernia


WebCam (dist. 7Km Ovest) Basaluzzo  WebCam (dist. 7Km Ovest) Basaluzzo


WebCam (dist.13Km Ovest) Castelferro  WebCam (dist.13Km Ovest) Castelferro


WebCam (dist. 15Km Sud) Carrosio  WebCam (dist. 15Km Sud) Carrosio


Avvisi EUMETNET-METEOalarm

Non sono previsti fenomeni meteo rilevanti    Non sono presenti avvisi di allerta meteo

NOTIZIE METEO

Report METAR

   
LIMV - Alessandria
Dati ricevuti: 18-10-2018 11:55
Patches of, Nebbia, Parz. nuvoloso  
Patches of, Nebbia, Parz. nuvoloso  
   Vento: Variabile Calma
Vento: Variabile Calma
Temperatura e Condizioni Meteo: 14°C
P.to Rugiada: 12°C
Umidità: 88%
Pressione: 1017 hPa
Copertura nuvolosa: Partly Cloudy
Visibilità: 5 km
Dettagli cop. nuvolosa: Parz. nuvoloso 300 ft,
Parz. nuvoloso 1200 ft
LIMV 180955Z /////KT 5000 0800N BCFG SCT003 SCT012 14/12 Q1017 RMK BKN MON N INVIS S LIB VAL N INVIS S FOSCHIA VIS MIN 0800N
LIMJ - Genova
Dati ricevuti: 18-10-2018 12:20
Poche nuvole  
Poche nuvole  
   Vento: NE 18.5 km/h
Vento: NE 18.5 km/h
Temperatura e Condizioni Meteo: 22°C
P.to Rugiada: 13°C
Umidità: 57%
Pressione: 1015 hPa
Copertura nuvolosa: Few Clouds
Visibilità: oltre 10 km
Dettagli cop. nuvolosa: Poche nuvole 2500 ft
LIMJ 181020Z 04010KT 360V070 9999 FEW025 22/13 Q1015
LIML - Milano
Dati ricevuti: 18-10-2018 12:20
Parz. nuvoloso  
Parz. nuvoloso  
   Vento: Variabile 3.7 km/h
Vento: Variabile 3.7 km/h
Temperatura e Condizioni Meteo: 21°C
P.to Rugiada: 13°C
Umidità: 60%
Pressione: 1017 hPa
Copertura nuvolosa: Partly Cloudy
Visibilità: 6 km
Dettagli cop. nuvolosa: Parz. nuvoloso ft
LIML 181020Z VRB02KT 6000 NSC 21/13 Q1017 NOSIG
LIMF - Torino
Dati ricevuti: 18-10-2018 12:20
Sereno  
Sereno  
   Vento: SE 7.4 km/h
Vento: SE 7.4 km/h
Temperatura e Condizioni Meteo: 19°C
P.to Rugiada: 13°C
Umidità: 68%
Pressione: 1018 hPa
Visibilità: oltre 10 km
Dettagli cop. nuvolosa: Sereno ft
LIMF 181020Z 14004KT 110V190 CAVOK 19/13 Q1018
LIRA - Roma
Dati ricevuti: 18-10-2018 12:20
Poche nuvole  
Poche nuvole  
   Vento: Variabile 3.7 km/h
Vento: Variabile 3.7 km/h
Temperatura e Condizioni Meteo: 24°C
P.to Rugiada: 15°C
Umidità: 57%
Pressione: 1013 hPa
Copertura nuvolosa: Few Clouds
Visibilità: oltre 10 km
Dettagli cop. nuvolosa: Poche nuvole 3500 ft
LIRA 181020Z VRB02KT 9999 FEW035 24/15 Q1013
LICJ - Palermo
Dati ricevuti: 18-10-2018 12:20
Poche nuvole  
Poche nuvole  
   Vento: Ovest 16.7 km/h
Vento: Ovest 16.7 km/h
Temperatura e Condizioni Meteo: 24°C
P.to Rugiada: 17°C
Umidità: 65%
Pressione: 1009 hPa
Copertura nuvolosa: Few Clouds
Visibilità: oltre 10 km
Dettagli cop. nuvolosa: Poche nuvole 2000 ft
LICJ 181020Z 27009KT 9999 FEW020 24/17 Q1009

Script sviluppato da  Saratoga-weather.org Adattato per il modello da  Weerstation Leuven

Potete trovare le nostre informazioni meteo anche su:

Meteonetwork

Linea Meteo

Weather Underground

AWEKAS

European Weather Network

PWS Weather

WeatherCloud

Citizen Weather Observer Program (CWOP)

Strumentazione in uso:

Meteo-stazione
Oregon Scientific WMR300

Meteo-programma
Weather Display

Meteo-server
Samsung N220

Oregon Scientific WMR300

Weather Display

Samsung N220


Banda Musicale Pozzolese


<